createdAt,value
2018-07-03T00:02:02.491Z,8.77
2018-07-03T00:04:31.920Z,8.93
2018-07-03T00:07:01.528Z,9.17
2018-07-03T00:09:31.646Z,8.40
2018-07-03T00:12:01.032Z,9.33
2018-07-03T00:14:29.628Z,8.97
2018-07-03T00:17:03.565Z,8.80
2018-07-03T00:19:32.506Z,9.10
2018-07-03T00:22:01.180Z,9.10
2018-07-03T00:24:30.494Z,8.90
2018-07-03T00:26:59.167Z,8.93
2018-07-03T00:29:28.202Z,8.73
2018-07-03T00:31:57.149Z,9.00
2018-07-03T00:34:25.988Z,8.80
2018-07-03T00:36:54.704Z,8.70
2018-07-03T00:39:24.413Z,8.50
2018-07-03T00:41:53.572Z,9.07
2018-07-03T00:44:22.322Z,9.10
2018-07-03T00:46:50.997Z,9.37
2018-07-03T00:49:19.717Z,9.10
2018-07-03T00:51:48.614Z,9.30
2018-07-03T00:54:17.267Z,8.90
2018-07-03T00:56:46.344Z,8.80
2018-07-03T00:59:15.008Z,8.70
2018-07-03T01:01:43.655Z,8.83
2018-07-03T01:04:12.349Z,8.70
2018-07-03T01:06:41.126Z,8.80
2018-07-03T01:09:10.309Z,9.10
2018-07-03T01:11:40.467Z,9.13
2018-07-03T01:14:09.284Z,8.27
2018-07-03T01:16:37.974Z,8.87
2018-07-03T01:19:06.706Z,8.80
2018-07-03T01:21:35.394Z,9.07
2018-07-03T01:24:04.114Z,9.37
2018-07-03T01:26:33.335Z,9.23
2018-07-03T01:29:02.019Z,9.90
2018-07-03T01:31:30.714Z,9.07
2018-07-03T01:33:59.447Z,8.60
2018-07-03T01:36:28.468Z,8.80
2018-07-03T01:38:57.227Z,8.90
2018-07-03T01:41:25.878Z,8.60
2018-07-03T01:43:54.846Z,9.17
2018-07-03T01:46:23.460Z,8.73
2018-07-03T01:48:52.147Z,9.30
2018-07-03T01:51:20.900Z,8.90
2018-07-03T01:53:49.781Z,8.60
2018-07-03T01:56:18.548Z,8.50
2018-07-03T01:58:47.177Z,9.07
2018-07-03T02:01:15.928Z,8.50
2018-07-03T02:03:44.664Z,8.97
2018-07-03T02:06:13.345Z,8.80
2018-07-03T02:08:42.076Z,8.60
2018-07-03T02:11:10.814Z,8.90
2018-07-03T02:13:39.470Z,8.70
2018-07-03T02:16:08.495Z,8.50
2018-07-03T02:18:37.378Z,8.80
2018-07-03T02:21:06.291Z,8.50
2018-07-03T02:23:34.991Z,8.60
2018-07-03T02:26:03.697Z,8.60
2018-07-03T02:28:32.549Z,8.47
2018-07-03T02:31:02.094Z,8.00
2018-07-03T02:33:32.634Z,8.70
2018-07-03T02:36:01.951Z,8.13
2018-07-03T02:38:30.565Z,8.30
2018-07-03T02:40:59.583Z,8.37
2018-07-03T02:43:28.244Z,8.40
2018-07-03T02:45:57.361Z,8.80
2018-07-03T02:48:26.140Z,8.27
2018-07-03T02:50:55.421Z,11.67
2018-07-03T02:53:24.146Z,9.50
2018-07-03T02:55:53.227Z,8.80
2018-07-03T02:58:21.959Z,8.40
2018-07-03T03:00:50.671Z,8.17
2018-07-03T03:03:19.600Z,8.43
2018-07-03T03:05:48.322Z,7.90
2018-07-03T03:08:17.428Z,9.30
2018-07-03T03:10:46.153Z,8.67
2018-07-03T03:13:15.095Z,8.77
2018-07-03T03:15:44.050Z,8.27
2018-07-03T03:18:12.709Z,8.30
2018-07-03T03:20:41.356Z,8.30
2018-07-03T03:23:10.014Z,8.47
2018-07-03T03:25:38.765Z,8.40
2018-07-03T03:28:07.579Z,8.80
2018-07-03T03:30:36.281Z,8.40
2018-07-03T03:33:05.455Z,8.60
2018-07-03T03:35:34.279Z,8.10
2018-07-03T03:38:02.932Z,8.10
2018-07-03T03:40:31.925Z,8.30
2018-07-03T03:43:00.587Z,8.27
2018-07-03T03:45:30.036Z,8.40
2018-07-03T03:47:59.085Z,7.87
2018-07-03T03:50:27.706Z,8.30
2018-07-03T03:52:56.732Z,8.30
2018-07-03T03:55:25.478Z,8.30
2018-07-03T03:57:54.143Z,7.87
2018-07-03T04:00:22.786Z,8.50
2018-07-03T04:02:51.657Z,8.20
2018-07-03T04:05:20.435Z,8.13
2018-07-03T04:07:49.085Z,7.97
2018-07-03T04:10:17.802Z,8.33
2018-07-03T04:12:46.522Z,8.47
2018-07-03T04:15:15.199Z,8.10
2018-07-03T04:17:43.977Z,8.30
2018-07-03T04:20:12.664Z,8.10
2018-07-03T04:22:41.344Z,8.23
2018-07-03T04:25:10.078Z,8.07
2018-07-03T04:27:39.234Z,9.00
2018-07-03T04:30:07.984Z,8.53
2018-07-03T04:32:37.172Z,8.40
2018-07-03T04:35:06.966Z,8.30
2018-07-03T04:37:35.781Z,8.50
2018-07-03T04:40:04.935Z,7.80
2018-07-03T04:42:33.638Z,8.30
2018-07-03T04:45:02.403Z,8.10
2018-07-03T04:47:31.817Z,8.10
2018-07-03T04:50:00.851Z,7.80
2018-07-03T04:52:30.028Z,8.50
2018-07-03T04:54:58.886Z,8.77
2018-07-03T04:57:27.611Z,8.40
2018-07-03T04:59:56.304Z,8.20
2018-07-03T05:02:25.045Z,8.60
2018-07-03T05:04:54.459Z,8.30
2018-07-03T05:07:23.609Z,8.50
2018-07-03T05:09:52.272Z,8.30
2018-07-03T05:12:21.267Z,8.00
2018-07-03T05:14:50.059Z,8.70
2018-07-03T05:17:19.151Z,8.30
2018-07-03T05:19:47.907Z,8.70
2018-07-03T05:22:16.604Z,8.57
2018-07-03T05:24:45.404Z,9.00
2018-07-03T05:27:14.009Z,8.67
2018-07-03T05:29:43.043Z,9.70
2018-07-03T05:32:12.541Z,9.63
2018-07-03T05:34:41.261Z,9.00
2018-07-03T05:37:09.912Z,9.00
2018-07-03T05:39:38.616Z,9.07
2018-07-03T05:42:07.240Z,8.70
2018-07-03T05:44:36.121Z,9.77
2018-07-03T05:47:04.997Z,8.97
2018-07-03T05:49:33.617Z,8.90
2018-07-03T05:52:02.422Z,9.13
2018-07-03T05:54:31.338Z,8.43
2018-07-03T05:56:59.962Z,9.30
2018-07-03T05:59:28.675Z,8.80
2018-07-03T06:01:57.392Z,9.23
2018-07-03T06:04:26.189Z,8.70
2018-07-03T06:06:55.018Z,8.70
2018-07-03T06:09:23.997Z,8.37
2018-07-03T06:11:52.880Z,8.80
2018-07-03T06:14:21.599Z,8.80
2018-07-03T06:16:54.450Z,8.70
2018-07-03T06:19:24.003Z,8.37
2018-07-03T06:21:53.807Z,8.50
2018-07-03T06:24:22.562Z,9.23
2018-07-03T06:26:51.407Z,10.10
2018-07-03T06:29:22.481Z,9.13
2018-07-03T06:31:51.523Z,8.57
2018-07-03T06:34:20.931Z,8.60
2018-07-03T06:36:49.710Z,8.60
2018-07-03T06:39:18.588Z,8.60
2018-07-03T06:41:47.523Z,8.93
2018-07-03T06:44:16.860Z,8.90
2018-07-03T06:46:45.791Z,8.70
2018-07-03T06:49:14.916Z,9.40
2018-07-03T06:51:43.633Z,8.70
2018-07-03T06:54:13.077Z,8.60
2018-07-03T06:56:42.168Z,8.10
2018-07-03T06:59:11.074Z,8.43
2018-07-03T07:01:40.122Z,8.63
2018-07-03T07:04:08.755Z,8.60
2018-07-03T07:06:37.454Z,8.70
2018-07-03T07:09:08.601Z,8.00
2018-07-03T07:11:37.428Z,8.70
2018-07-03T07:14:06.380Z,7.90
2018-07-03T07:16:35.576Z,8.70
2018-07-03T07:19:04.560Z,8.43
2018-07-03T07:21:33.462Z,8.77
2018-07-03T07:24:02.295Z,8.70
2018-07-03T07:26:31.371Z,8.60
2018-07-03T07:29:00.047Z,8.87
2018-07-03T07:31:28.803Z,9.10
2018-07-03T07:33:57.913Z,8.43
2018-07-03T07:36:26.962Z,11.13
2018-07-03T07:38:55.984Z,8.57
2018-07-03T07:41:24.737Z,7.97
2018-07-03T07:43:53.631Z,8.40
2018-07-03T07:46:22.385Z,7.90
2018-07-03T07:48:51.157Z,8.30
2018-07-03T07:51:19.915Z,8.30
2018-07-03T07:53:48.714Z,8.50
2018-07-03T07:56:17.499Z,7.90
2018-07-03T07:58:46.593Z,8.20
2018-07-03T08:01:15.375Z,8.40
2018-07-03T08:03:44.323Z,8.30
2018-07-03T08:06:13.044Z,8.20
2018-07-03T08:08:41.944Z,7.63
2018-07-03T08:11:10.993Z,8.50
2018-07-03T08:13:40.293Z,8.33
2018-07-03T08:16:08.978Z,8.37
2018-07-03T08:18:37.654Z,8.20
2018-07-03T08:21:06.558Z,8.70
2018-07-03T08:23:35.250Z,8.40
2018-07-03T08:26:04.125Z,8.80
2018-07-03T08:28:32.786Z,8.10
2018-07-03T08:31:01.470Z,8.30
2018-07-03T08:33:30.157Z,8.10
2018-07-03T08:35:58.853Z,8.60
2018-07-03T08:38:27.583Z,8.50
2018-07-03T08:40:56.581Z,8.43
2018-07-03T08:43:25.356Z,9.60
2018-07-03T08:45:54.351Z,8.30
2018-07-03T08:48:23.010Z,8.57
2018-07-03T08:50:51.738Z,8.57
2018-07-03T08:53:20.376Z,8.90
2018-07-03T08:55:49.622Z,8.37
2018-07-03T08:58:18.535Z,8.13
2018-07-03T09:00:47.305Z,8.10
2018-07-03T09:03:15.976Z,7.80
2018-07-03T09:05:44.947Z,8.30
2018-07-03T09:08:14.170Z,8.43
2018-07-03T09:10:42.856Z,8.67
2018-07-03T09:13:11.993Z,8.33
2018-07-03T09:15:40.710Z,8.17
2018-07-03T09:18:09.536Z,8.00
2018-07-03T09:20:38.290Z,8.00
2018-07-03T09:23:07.126Z,8.10
2018-07-03T09:25:35.841Z,7.87
2018-07-03T09:28:04.621Z,7.57
2018-07-03T09:30:33.758Z,8.27
2018-07-03T09:33:02.525Z,7.90
2018-07-03T09:35:31.699Z,8.40
2018-07-03T09:38:00.516Z,8.50
2018-07-03T09:40:29.172Z,8.27
2018-07-03T09:42:57.974Z,7.90
2018-07-03T09:45:26.697Z,10.00
2018-07-03T09:47:55.467Z,8.07
2018-07-03T09:50:24.430Z,8.00
2018-07-03T09:52:53.069Z,7.70
2018-07-03T09:55:21.719Z,7.90
2018-07-03T09:57:50.825Z,8.13
2018-07-03T10:00:25.136Z,8.07
2018-07-03T10:02:53.827Z,8.10
2018-07-03T10:05:22.527Z,7.70
2018-07-03T10:07:51.708Z,8.30
2018-07-03T10:10:20.366Z,8.30
2018-07-03T10:12:49.226Z,8.20
2018-07-03T10:15:18.004Z,8.47
2018-07-03T10:17:46.756Z,8.00
2018-07-03T10:20:15.972Z,8.23
2018-07-03T10:22:44.715Z,8.47
2018-07-03T10:25:13.510Z,8.20
2018-07-03T10:27:42.406Z,8.50
2018-07-03T10:30:11.129Z,8.30
2018-07-03T10:32:39.855Z,8.83
2018-07-03T10:35:09.211Z,8.20
2018-07-03T10:37:38.309Z,8.07
2018-07-03T10:40:07.155Z,8.10
2018-07-03T10:42:35.887Z,8.40
2018-07-03T10:45:04.997Z,8.27
2018-07-03T10:47:33.857Z,7.93
2018-07-03T10:50:02.709Z,8.20
2018-07-03T10:52:31.496Z,8.00
2018-07-03T10:55:00.119Z,7.90
2018-07-03T10:57:28.788Z,8.10
2018-07-03T10:59:57.444Z,8.30
2018-07-03T11:02:26.201Z,8.20
2018-07-03T11:04:54.828Z,7.73
2018-07-03T11:07:23.877Z,7.90
2018-07-03T11:09:53.067Z,7.33
2018-07-03T11:12:21.966Z,8.37
2018-07-03T11:14:50.672Z,7.80
2018-07-03T11:17:19.408Z,8.80
2018-07-03T11:19:48.093Z,8.20
2018-07-03T11:22:16.817Z,7.57
2018-07-03T11:24:45.556Z,7.47
2018-07-03T11:27:14.368Z,7.90
2018-07-03T11:29:43.438Z,8.43
2018-07-03T11:32:12.177Z,7.93
2018-07-03T11:34:40.804Z,7.60
2018-07-03T11:37:09.514Z,8.43
2018-07-03T11:39:38.250Z,8.40
2018-07-03T11:42:07.214Z,8.60
2018-07-03T11:44:35.986Z,9.30
2018-07-03T11:47:04.711Z,7.97
2018-07-03T11:49:33.434Z,8.10
2018-07-03T11:52:02.876Z,8.70
2018-07-03T11:54:31.662Z,8.23
2018-07-03T11:57:00.514Z,7.73
2018-07-03T11:59:29.546Z,8.30
2018-07-03T12:01:58.326Z,7.70
2018-07-03T12:04:27.159Z,8.00
2018-07-03T12:06:56.835Z,8.17
2018-07-03T12:09:25.601Z,8.10
2018-07-03T12:11:54.874Z,7.47
2018-07-03T12:14:23.604Z,8.20
2018-07-03T12:16:52.683Z,7.40
2018-07-03T12:19:21.427Z,7.80
2018-07-03T12:21:50.310Z,7.62
2018-07-03T12:24:19.131Z,8.08
2018-07-03T12:26:48.113Z,7.33
2018-07-03T12:29:16.868Z,7.90
2018-07-03T12:31:45.647Z,7.75
2018-07-03T12:34:14.670Z,8.63
2018-07-03T12:36:43.397Z,8.10
2018-07-03T12:39:12.679Z,7.20
2018-07-03T12:41:41.356Z,7.33
2018-07-03T12:44:09.991Z,7.42
2018-07-03T12:46:38.938Z,7.25
2018-07-03T12:49:07.933Z,7.08
2018-07-03T12:51:36.712Z,7.42
2018-07-03T12:54:05.403Z,7.60
2018-07-03T12:56:34.306Z,7.12
2018-07-03T12:59:03.187Z,7.67
2018-07-03T13:01:31.987Z,10.63
2018-07-03T13:04:01.052Z,8.20
2018-07-03T13:06:29.779Z,7.30
2018-07-03T13:08:58.823Z,7.00
2018-07-03T13:11:27.550Z,8.30
2018-07-03T13:13:56.318Z,7.53
2018-07-03T13:16:25.625Z,7.37
2018-07-03T13:18:54.913Z,6.95
2018-07-03T13:21:23.899Z,7.72
2018-07-03T13:23:52.562Z,7.30
2018-07-03T13:26:21.304Z,7.70
2018-07-03T13:28:50.282Z,7.33
2018-07-03T13:31:19.116Z,7.22
2018-07-03T13:33:47.827Z,7.62
2018-07-03T13:36:16.813Z,7.10
2018-07-03T13:38:45.552Z,7.37
2018-07-03T13:41:14.514Z,6.95
2018-07-03T13:43:43.305Z,7.65
2018-07-03T13:46:12.754Z,7.08
2018-07-03T13:48:41.486Z,7.65
2018-07-03T13:51:10.235Z,7.22
2018-07-03T13:53:39.284Z,7.67
2018-07-03T13:56:08.119Z,7.45
2018-07-03T13:58:36.821Z,7.20
2018-07-03T14:01:05.602Z,7.28
2018-07-03T14:03:34.375Z,6.83
2018-07-03T14:06:03.025Z,7.37
2018-07-03T14:08:31.722Z,6.85
2018-07-03T14:11:00.353Z,7.37
2018-07-03T14:13:29.142Z,7.33
2018-07-03T14:15:58.302Z,7.05
2018-07-03T14:18:28.016Z,7.15
2018-07-03T14:20:58.888Z,7.35
2018-07-03T14:23:28.710Z,7.65
2018-07-03T14:25:57.351Z,7.72
2018-07-03T14:28:26.032Z,8.30
2018-07-03T14:30:55.042Z,9.80
2018-07-03T14:33:24.049Z,8.08
2018-07-03T14:35:52.738Z,8.08
2018-07-03T14:38:21.463Z,7.45
2018-07-03T14:40:50.250Z,7.90
2018-07-03T14:43:18.976Z,8.30
2018-07-03T14:45:47.766Z,7.97
2018-07-03T14:48:16.565Z,8.30
2018-07-03T14:50:45.323Z,8.00
2018-07-03T14:53:14.270Z,8.03
2018-07-03T14:55:43.412Z,7.87
2018-07-03T14:58:12.074Z,8.20
2018-07-03T15:00:41.125Z,7.67
2018-07-03T15:03:10.314Z,9.17
2018-07-03T15:05:39.086Z,8.77
2018-07-03T15:08:07.850Z,8.50
2018-07-03T15:10:36.521Z,7.97
2018-07-03T15:13:05.616Z,8.07
2018-07-03T15:15:34.299Z,8.20
2018-07-03T15:18:03.279Z,7.90
2018-07-03T15:20:32.029Z,9.20
2018-07-03T15:23:00.728Z,8.40
2018-07-03T15:25:29.458Z,8.73
2018-07-03T15:27:58.152Z,8.10
2018-07-03T15:30:26.838Z,7.90
2018-07-03T15:32:56.275Z,8.17
2018-07-03T15:35:25.064Z,8.50
2018-07-03T15:37:53.854Z,10.60
2018-07-03T15:40:22.802Z,9.67
2018-07-03T15:42:52.015Z,8.23
2018-07-03T15:45:20.736Z,8.13
2018-07-03T15:47:49.484Z,8.00
2018-07-03T15:50:18.531Z,7.53
2018-07-03T15:52:47.368Z,8.03
2018-07-03T15:55:16.081Z,8.10
2018-07-03T15:57:46.377Z,8.00
2018-07-03T16:00:15.693Z,7.77
2018-07-03T16:04:53.951Z,8.13
2018-07-03T16:07:33.539Z,7.83
2018-07-03T16:10:02.470Z,7.80
2018-07-03T16:12:31.243Z,8.50
2018-07-03T16:14:59.986Z,7.83
2018-07-03T16:17:28.761Z,8.10
2018-07-03T16:20:02.548Z,8.13
2018-07-03T16:22:31.507Z,8.30
2018-07-03T16:25:07.726Z,8.47
2018-07-03T16:27:36.442Z,8.43
2018-07-03T16:30:07.493Z,8.47
2018-07-03T16:32:36.515Z,8.20
2018-07-03T16:35:05.604Z,8.50
2018-07-03T16:37:34.693Z,9.03
2018-07-03T16:40:03.605Z,8.70
2018-07-03T16:42:32.335Z,9.40
2018-07-03T16:45:01.182Z,9.43
2018-07-03T16:47:30.081Z,8.97
2018-07-03T16:49:58.742Z,9.03
2018-07-03T16:52:27.539Z,8.90
2018-07-03T16:54:56.247Z,8.97
2018-07-03T16:57:25.087Z,9.40
2018-07-03T16:59:53.812Z,8.60
2018-07-03T17:02:22.448Z,9.20
2018-07-03T17:04:51.143Z,9.80
2018-07-03T17:07:19.882Z,9.00
2018-07-03T17:09:49.371Z,8.50
2018-07-03T17:12:18.303Z,8.70
2018-07-03T17:14:54.096Z,9.10
2018-07-03T17:17:23.208Z,9.50
2018-07-03T17:19:51.896Z,8.60
2018-07-03T17:22:21.656Z,8.93
2018-07-03T17:24:50.315Z,9.90
2018-07-03T17:27:19.161Z,8.90
2018-07-03T17:29:48.259Z,8.13
2018-07-03T17:32:17.783Z,8.23
2018-07-03T17:34:46.595Z,7.87
2018-07-03T17:37:15.232Z,8.90
2018-07-03T17:39:54.977Z,9.03
2018-07-03T17:42:35.820Z,10.13
2018-07-03T17:45:43.309Z,9.00
2018-07-03T17:48:13.288Z,8.50
2018-07-03T17:50:41.955Z,8.20
2018-07-03T17:53:10.826Z,8.50
2018-07-03T17:55:39.959Z,8.10
2018-07-03T17:58:08.967Z,8.20
2018-07-03T18:00:37.756Z,8.10
2018-07-03T18:03:06.509Z,9.03
2018-07-03T18:05:35.529Z,8.13
2018-07-03T18:08:04.305Z,8.27
2018-07-03T18:10:33.020Z,8.40
2018-07-03T18:13:02.108Z,8.47
2018-07-03T18:15:31.313Z,8.67
2018-07-03T18:18:00.188Z,8.77
2018-07-03T18:20:29.056Z,8.60
2018-07-03T18:22:57.850Z,8.87
2018-07-03T18:25:26.563Z,8.23
2018-07-03T18:27:55.301Z,8.90
2018-07-03T18:30:26.147Z,8.80
2018-07-03T18:32:55.612Z,8.80
2018-07-03T18:35:24.584Z,8.80
2018-07-03T18:37:53.401Z,8.93
2018-07-03T18:40:22.180Z,8.77
2018-07-03T18:42:51.157Z,8.53
2018-07-03T18:45:20.475Z,9.30
2018-07-03T18:47:49.156Z,8.93
2018-07-03T18:50:18.766Z,8.77
2018-07-03T18:52:47.569Z,8.70
2018-07-03T18:55:16.533Z,9.03
2018-07-03T18:57:45.895Z,9.53
2018-07-03T19:00:14.835Z,9.10
2018-07-03T19:02:43.946Z,9.50
2018-07-03T19:05:13.058Z,8.70
2018-07-03T19:07:41.872Z,9.33
2018-07-03T19:10:10.604Z,10.13
2018-07-03T19:12:39.334Z,9.57
2018-07-03T19:15:08.676Z,11.57
2018-07-03T19:17:37.915Z,12.17
2018-07-03T19:20:07.860Z,12.17
2018-07-03T19:22:36.687Z,11.37
2018-07-03T19:25:05.753Z,9.90
2018-07-03T19:27:35.069Z,10.07
2018-07-03T19:30:03.810Z,9.73
2018-07-03T19:32:32.649Z,9.90
2018-07-03T19:35:01.375Z,9.80
2018-07-03T19:37:30.092Z,9.30
2018-07-03T19:39:58.971Z,9.60
2018-07-03T19:42:27.827Z,9.40
2018-07-03T19:44:56.631Z,9.73
2018-07-03T19:47:25.440Z,9.63
2018-07-03T19:49:54.231Z,9.33
2018-07-03T19:52:23.406Z,9.40
2018-07-03T19:54:52.221Z,9.53
2018-07-03T19:57:20.952Z,9.30
2018-07-03T19:59:49.871Z,8.60
2018-07-03T20:02:18.557Z,8.80
2018-07-03T20:04:47.357Z,9.60
2018-07-03T20:07:16.194Z,9.03
2018-07-03T20:09:45.020Z,8.87
2018-07-03T20:12:13.882Z,9.20
2018-07-03T20:14:42.908Z,9.20
2018-07-03T20:17:11.762Z,9.50
2018-07-03T20:19:40.582Z,9.90
2018-07-03T20:22:09.326Z,10.07
2018-07-03T20:24:38.116Z,9.63
2018-07-03T20:27:07.005Z,9.90
2018-07-03T20:29:35.668Z,10.50
2018-07-03T20:32:04.441Z,10.13
2018-07-03T20:34:33.169Z,9.87
2018-07-03T20:37:01.926Z,9.53
2018-07-03T20:39:30.829Z,9.80
2018-07-03T20:41:59.529Z,9.90
2018-07-03T20:44:28.535Z,9.30
2018-07-03T20:46:57.872Z,9.00
2018-07-03T20:49:26.562Z,8.97
2018-07-03T20:51:55.607Z,9.80
2018-07-03T20:54:25.343Z,9.40
2018-07-03T20:56:54.359Z,9.00
2018-07-03T20:59:23.493Z,9.17
2018-07-03T21:01:52.230Z,8.93
2018-07-03T21:04:21.173Z,14.67
2018-07-03T21:06:50.161Z,13.17
2018-07-03T21:09:19.201Z,9.47
2018-07-03T21:11:47.913Z,9.47
2018-07-03T21:14:17.021Z,9.60
2018-07-03T21:16:45.707Z,9.40
2018-07-03T21:19:14.733Z,9.20
2018-07-03T21:21:43.471Z,8.90
2018-07-03T21:24:12.307Z,8.90
2018-07-03T21:26:40.918Z,9.97
2018-07-03T21:29:09.686Z,12.80
2018-07-03T21:31:38.440Z,14.20
2018-07-03T21:34:07.159Z,10.30
2018-07-03T21:36:35.847Z,9.60
2018-07-03T21:39:06.130Z,9.77
2018-07-03T21:41:34.722Z,9.30
2018-07-03T21:44:03.487Z,9.07
2018-07-03T21:46:32.197Z,8.60
2018-07-03T21:49:00.941Z,8.57
2018-07-03T21:51:29.628Z,8.67
2018-07-03T21:53:58.688Z,9.13
2018-07-03T21:56:27.406Z,9.27
2018-07-03T21:58:56.506Z,8.60
2018-07-03T22:01:25.508Z,8.60
2018-07-03T22:03:54.294Z,9.03
2018-07-03T22:06:23.181Z,8.83
2018-07-03T22:08:52.174Z,9.23
2018-07-03T22:11:21.239Z,9.20
2018-07-03T22:13:50.218Z,9.33
2018-07-03T22:16:19.018Z,8.80
2018-07-03T22:18:47.900Z,9.03
2018-07-03T22:21:16.555Z,8.70
2018-07-03T22:23:45.186Z,8.90
2018-07-03T22:26:13.897Z,8.90
2018-07-03T22:28:42.610Z,10.03
2018-07-03T22:31:11.280Z,9.23
2018-07-03T22:33:39.926Z,9.00
2018-07-03T22:36:08.619Z,8.47
2018-07-03T22:38:37.316Z,8.70
2018-07-03T22:41:06.057Z,9.60
2018-07-03T22:43:34.798Z,9.30
2018-07-03T22:46:03.502Z,8.60
2018-07-03T23:02:45.663Z,9.53
2018-07-03T23:05:14.834Z,9.17
2018-07-03T23:07:43.598Z,9.50
2018-07-03T23:10:12.656Z,9.00
2018-07-03T23:12:41.308Z,8.83
2018-07-03T23:15:10.264Z,8.77
2018-07-03T23:17:38.920Z,8.97
2018-07-03T23:20:07.697Z,8.90
2018-07-03T23:22:36.299Z,9.07
2018-07-03T23:25:05.019Z,9.33
2018-07-03T23:27:33.734Z,9.17
2018-07-03T23:30:02.632Z,9.20
2018-07-03T23:32:31.292Z,9.10
2018-07-03T23:35:00.093Z,8.97
2018-07-03T23:37:28.848Z,8.43
2018-07-03T23:39:57.535Z,8.50
2018-07-03T23:42:26.213Z,9.13
2018-07-03T23:44:54.900Z,8.73
2018-07-03T23:47:34.786Z,8.60
2018-07-03T23:50:14.801Z,8.37
2018-07-03T23:52:54.766Z,8.83
2018-07-03T23:55:34.506Z,8.40
2018-07-03T23:58:14.279Z,8.90
